createdAt,value
2023-03-29T00:02:32.821Z,1100.00
2023-03-29T00:06:32.683Z,1102.00
2023-03-29T00:10:32.786Z,1104.00
2023-03-29T00:14:32.741Z,1111.00
2023-03-29T00:18:32.764Z,1089.00
2023-03-29T00:22:32.761Z,1102.00
2023-03-29T00:26:32.684Z,1100.00
2023-03-29T00:30:32.682Z,1107.00
2023-03-29T00:34:32.665Z,1088.00
2023-03-29T00:38:32.695Z,1095.00
2023-03-29T00:42:32.666Z,1089.00
2023-03-29T00:46:32.653Z,1096.00
2023-03-29T00:50:32.865Z,1105.00
2023-03-29T00:54:32.585Z,1100.00
2023-03-29T00:58:32.619Z,1090.00
2023-03-29T01:02:32.644Z,1098.00
2023-03-29T01:06:32.641Z,1099.00
2023-03-29T01:10:32.602Z,1090.00
2023-03-29T01:14:32.629Z,1102.00
2023-03-29T01:18:32.928Z,1091.00
2023-03-29T01:22:32.577Z,1110.00
2023-03-29T01:26:32.610Z,1096.00
2023-03-29T01:30:32.654Z,1107.00
2023-03-29T01:34:32.674Z,1107.00
2023-03-29T01:38:32.685Z,1090.00
2023-03-29T01:42:32.678Z,1089.00
2023-03-29T01:46:32.770Z,1100.00
2023-03-29T01:50:32.783Z,1090.00
2023-03-29T01:54:32.820Z,1090.00
2023-03-29T01:58:32.820Z,1101.00
2023-03-29T02:02:32.938Z,1105.00
2023-03-29T02:06:32.890Z,1086.00
2023-03-29T02:10:32.972Z,1091.00
2023-03-29T02:14:32.946Z,1069.00
2023-03-29T02:18:32.969Z,1079.00
2023-03-29T02:22:33.087Z,1083.00
2023-03-29T02:26:33.127Z,1084.00
2023-03-29T02:30:33.150Z,1062.00
2023-03-29T02:34:33.184Z,1065.00
2023-03-29T02:38:33.197Z,1069.00
2023-03-29T02:42:33.496Z,1061.00
2023-03-29T02:46:33.409Z,1064.00
2023-03-29T02:50:33.380Z,1040.00
2023-03-29T02:54:33.463Z,1050.00
2023-03-29T02:58:33.504Z,1057.00
2023-03-29T03:02:33.647Z,1061.00
2023-03-29T03:06:33.606Z,1057.00
2023-03-29T03:10:33.757Z,1047.00
2023-03-29T03:14:33.709Z,1040.00
2023-03-29T03:18:33.948Z,1066.00
2023-03-29T03:22:33.822Z,1051.00
2023-03-29T03:26:33.843Z,1057.00
2023-03-29T03:30:33.923Z,1066.00
2023-03-29T03:34:33.977Z,1063.00
2023-03-29T03:38:33.999Z,1057.00
2023-03-29T03:42:34.097Z,1055.00
2023-03-29T03:46:34.190Z,1066.00
2023-03-29T03:50:34.293Z,1065.00
2023-03-29T03:54:34.333Z,1063.00
2023-03-29T03:58:34.470Z,1071.00
2023-03-29T04:02:34.628Z,1033.00
2023-03-29T04:06:34.612Z,936.00
2023-03-29T04:10:34.638Z,851.00
2023-03-29T04:14:34.673Z,768.00
2023-03-29T04:18:34.871Z,694.00
2023-03-29T04:22:34.881Z,729.00
2023-03-29T04:26:35.003Z,756.00
2023-03-29T04:30:35.158Z,706.00
2023-03-29T04:34:35.270Z,765.00
2023-03-29T04:38:35.431Z,805.00
2023-03-29T04:42:35.531Z,822.00
2023-03-29T04:46:35.749Z,838.00
2023-03-29T04:50:35.782Z,821.00
2023-03-29T04:54:35.949Z,854.00
2023-03-29T04:58:36.071Z,855.00
2023-03-29T05:02:36.200Z,888.00
2023-03-29T05:06:36.320Z,878.00
2023-03-29T05:10:36.480Z,884.00
2023-03-29T05:14:36.589Z,887.00
2023-03-29T05:18:36.749Z,884.00
2023-03-29T05:26:55.763Z,500.00
2023-03-29T05:30:55.689Z,506.00
2023-03-29T05:34:55.662Z,504.00
2023-03-29T05:38:55.584Z,528.00
2023-03-29T05:42:55.530Z,525.00
2023-03-29T05:46:55.682Z,573.00
2023-03-29T05:50:55.455Z,558.00
2023-03-29T05:54:55.901Z,550.00
2023-03-29T05:58:56.432Z,556.00
2023-03-29T06:02:59.311Z,563.00
2023-03-29T06:06:56.501Z,567.00
2023-03-29T06:10:55.414Z,575.00
2023-03-29T06:14:55.737Z,591.00
2023-03-29T06:18:55.588Z,594.00
2023-03-29T06:22:55.580Z,602.00
2023-03-29T06:26:55.539Z,611.00
2023-03-29T06:30:55.563Z,604.00
2023-03-29T06:34:55.579Z,612.00
2023-03-29T06:38:55.433Z,602.00
2023-03-29T06:42:55.413Z,612.00
2023-03-29T06:46:55.725Z,615.00
2023-03-29T06:50:55.365Z,622.00
2023-03-29T06:54:55.418Z,594.00
2023-03-29T06:58:55.983Z,587.00
2023-03-29T07:02:55.373Z,598.00
2023-03-29T07:06:55.195Z,607.00
2023-03-29T07:10:55.289Z,595.00
2023-03-29T07:14:55.255Z,596.00
2023-03-29T07:18:55.354Z,586.00
2023-03-29T07:22:55.366Z,579.00
2023-03-29T07:27:04.121Z,580.00
2023-03-29T07:30:56.378Z,567.00
2023-03-29T07:34:55.416Z,556.00
2023-03-29T07:38:56.404Z,539.00
2023-03-29T07:42:55.519Z,547.00
2023-03-29T07:46:55.260Z,565.00
2023-03-29T07:50:55.356Z,571.00
2023-03-29T07:54:55.220Z,573.00
2023-03-29T07:58:55.983Z,581.00
2023-03-29T08:02:55.271Z,579.00
2023-03-29T08:06:55.160Z,567.00
2023-03-29T08:10:55.110Z,575.00
2023-03-29T08:14:55.112Z,544.00
2023-03-29T08:18:55.510Z,544.00
2023-03-29T08:22:55.187Z,511.00
2023-03-29T08:26:55.475Z,540.00
2023-03-29T08:30:55.450Z,518.00
2023-03-29T08:34:55.375Z,517.00
2023-03-29T08:38:55.395Z,526.00
2023-03-29T08:42:55.325Z,531.00
2023-03-29T08:47:07.153Z,541.00
2023-03-29T08:50:55.261Z,508.00
2023-03-29T08:54:56.101Z,534.00
2023-03-29T08:58:55.210Z,526.00
2023-03-29T09:02:55.244Z,514.00
2023-03-29T09:06:55.121Z,596.00
2023-03-29T09:10:56.944Z,602.00
2023-03-29T09:14:57.622Z,598.00
2023-03-29T09:18:55.461Z,606.00
2023-03-29T09:22:55.050Z,586.00
2023-03-29T09:26:55.003Z,611.00
2023-03-29T09:30:58.107Z,618.00
2023-03-29T09:34:55.190Z,582.00
2023-03-29T09:38:55.014Z,606.00
2023-03-29T09:42:54.780Z,606.00
2023-03-29T09:46:54.754Z,597.00
2023-03-29T09:50:54.719Z,602.00
2023-03-29T09:54:56.499Z,554.00
2023-03-29T09:59:03.598Z,552.00
2023-03-29T10:02:55.579Z,537.00
2023-03-29T10:06:55.572Z,559.00
2023-03-29T10:10:54.563Z,575.00
2023-03-29T10:14:54.616Z,579.00
2023-03-29T10:18:54.553Z,542.00
2023-03-29T10:22:54.490Z,538.00
2023-03-29T10:26:54.425Z,538.00
2023-03-29T10:30:54.402Z,540.00
2023-03-29T10:34:57.843Z,502.00
2023-03-29T10:38:54.337Z,577.00
2023-03-29T10:42:54.307Z,597.00
2023-03-29T10:46:54.304Z,578.00
2023-03-29T10:50:54.266Z,605.00
2023-03-29T10:54:54.282Z,604.00
2023-03-29T10:58:54.164Z,599.00
2023-03-29T11:02:54.238Z,585.00
2023-03-29T11:06:57.705Z,610.00
2023-03-29T11:10:54.047Z,584.00
2023-03-29T11:14:54.015Z,583.00
2023-03-29T11:18:54.011Z,562.00
2023-03-29T11:22:53.969Z,590.00
2023-03-29T11:26:53.964Z,524.00
2023-03-29T11:30:53.901Z,507.00
2023-03-29T11:34:53.933Z,537.00
2023-03-29T11:38:53.830Z,529.00
2023-03-29T11:42:53.803Z,501.00
2023-03-29T11:46:53.849Z,500.00
2023-03-29T11:50:53.754Z,557.00
2023-03-29T11:54:53.746Z,500.00
2023-03-29T11:58:53.660Z,542.00
2023-03-29T12:02:53.703Z,652.00
2023-03-29T12:06:53.618Z,759.00
2023-03-29T12:10:53.684Z,843.00
2023-03-29T12:14:53.495Z,1006.00
2023-03-29T12:18:53.626Z,1053.00
2023-03-29T12:22:53.732Z,1072.00
2023-03-29T12:26:53.778Z,1136.00
2023-03-29T12:30:53.711Z,1180.00
2023-03-29T12:34:53.717Z,1196.00
2023-03-29T12:38:54.077Z,1192.00
2023-03-29T12:42:53.701Z,1207.00
2023-03-29T12:46:53.725Z,1225.00
2023-03-29T12:50:53.848Z,1238.00
2023-03-29T12:54:53.853Z,1239.00
2023-03-29T12:58:54.136Z,1269.00
2023-03-29T13:02:54.032Z,1257.00
2023-03-29T13:06:54.344Z,1262.00
2023-03-29T13:10:53.960Z,1282.00
2023-03-29T13:14:53.895Z,1294.00
2023-03-29T13:18:53.839Z,1279.00
2023-03-29T13:22:53.828Z,1256.00
2023-03-29T13:26:54.087Z,1252.00
2023-03-29T13:30:54.028Z,1255.00
2023-03-29T13:34:53.866Z,1244.00
2023-03-29T13:38:53.671Z,1241.00
2023-03-29T13:42:53.666Z,1233.00
2023-03-29T13:46:53.645Z,1217.00
2023-03-29T13:50:53.610Z,1247.00
2023-03-29T13:54:53.564Z,1231.00
2023-03-29T13:58:53.769Z,1247.00
2023-03-29T14:02:53.948Z,1209.00
2023-03-29T14:06:54.189Z,1247.00
2023-03-29T14:10:54.182Z,1227.00
2023-03-29T14:14:59.213Z,1242.00
2023-03-29T14:18:55.147Z,1243.00
2023-03-29T14:22:53.987Z,1219.00
2023-03-29T14:26:54.096Z,1206.00
2023-03-29T14:30:54.122Z,1236.00
2023-03-29T14:34:54.115Z,1245.00
2023-03-29T14:38:54.048Z,1219.00
2023-03-29T14:42:53.970Z,1220.00
2023-03-29T14:46:53.997Z,1237.00
2023-03-29T14:50:53.928Z,1251.00
2023-03-29T14:54:53.858Z,1247.00
2023-03-29T14:58:53.827Z,1239.00
2023-03-29T15:01:52.940Z,500.00
2023-03-29T15:02:52.776Z,500.00
2023-03-29T15:03:54.694Z,500.00
2023-03-29T15:04:52.802Z,500.00
2023-03-29T15:05:52.818Z,500.00
2023-03-29T15:06:52.858Z,500.00
2023-03-29T15:07:52.937Z,500.00
2023-03-29T15:09:04.157Z,500.00
2023-03-29T15:09:54.029Z,495.00
2023-03-29T15:10:53.058Z,469.00
2023-03-29T15:11:52.993Z,452.00
2023-03-29T15:12:53.023Z,428.00
2023-03-29T15:13:52.980Z,419.00
2023-03-29T15:14:53.057Z,457.00
2023-03-29T15:15:52.951Z,497.00
2023-03-29T15:16:52.942Z,500.00
2023-03-29T15:17:53.047Z,500.00
2023-03-29T15:18:53.017Z,505.00
2023-03-29T15:19:52.996Z,505.00
2023-03-29T15:20:52.989Z,500.00
2023-03-29T15:21:52.970Z,511.00
2023-03-29T15:22:53.022Z,497.00
2023-03-29T15:23:52.972Z,501.00
2023-03-29T15:24:53.433Z,520.00
2023-03-29T15:25:52.979Z,504.00
2023-03-29T15:26:53.037Z,503.00
2023-03-29T15:27:53.009Z,504.00
2023-03-29T15:28:53.017Z,502.00
2023-03-29T15:29:52.969Z,500.00
2023-03-29T15:31:04.692Z,514.00
2023-03-29T15:31:54.076Z,503.00
2023-03-29T15:32:53.035Z,489.00
2023-03-29T15:33:52.982Z,486.00
2023-03-29T15:34:52.968Z,494.00
2023-03-29T15:35:52.986Z,512.00
2023-03-29T15:36:53.024Z,500.00
2023-03-29T15:37:52.970Z,500.00
2023-03-29T15:38:52.921Z,522.00
2023-03-29T15:39:52.946Z,537.00
2023-03-29T15:40:53.029Z,542.00
2023-03-29T15:41:52.890Z,537.00
2023-03-29T15:42:52.901Z,541.00
2023-03-29T15:43:52.922Z,541.00
2023-03-29T15:44:52.902Z,548.00
2023-03-29T15:45:52.920Z,551.00
2023-03-29T15:46:52.900Z,560.00
2023-03-29T15:47:52.904Z,551.00
2023-03-29T15:48:52.882Z,563.00
2023-03-29T15:49:52.896Z,551.00
2023-03-29T15:50:52.900Z,533.00
2023-03-29T15:51:52.846Z,535.00
2023-03-29T15:52:52.898Z,552.00
2023-03-29T15:53:52.859Z,551.00
2023-03-29T15:54:52.877Z,548.00
2023-03-29T15:55:52.836Z,560.00
2023-03-29T15:56:53.020Z,581.00
2023-03-29T15:57:52.879Z,589.00
2023-03-29T15:58:52.849Z,587.00
2023-03-29T15:59:52.809Z,599.00
2023-03-29T16:00:52.845Z,601.00
2023-03-29T16:01:52.859Z,605.00
2023-03-29T16:02:52.881Z,601.00
2023-03-29T16:03:52.790Z,620.00
2023-03-29T16:04:52.792Z,619.00
2023-03-29T16:05:52.787Z,621.00
2023-03-29T16:06:52.812Z,636.00
2023-03-29T16:07:52.756Z,648.00
2023-03-29T16:08:53.605Z,640.00
2023-03-29T16:09:52.821Z,640.00
2023-03-29T16:10:52.809Z,641.00
2023-03-29T16:11:52.779Z,656.00
2023-03-29T16:12:52.857Z,657.00
2023-03-29T16:13:52.701Z,668.00
2023-03-29T16:14:52.757Z,662.00
2023-03-29T16:15:52.701Z,661.00
2023-03-29T16:16:52.967Z,681.00
2023-03-29T16:17:52.823Z,695.00
2023-03-29T16:18:52.752Z,701.00
2023-03-29T16:19:52.794Z,696.00
2023-03-29T16:20:52.809Z,710.00
2023-03-29T16:21:52.802Z,707.00
2023-03-29T16:22:52.869Z,727.00
2023-03-29T16:23:52.904Z,724.00
2023-03-29T16:24:52.918Z,705.00
2023-03-29T16:25:52.923Z,731.00
2023-03-29T16:26:55.425Z,723.00
2023-03-29T16:27:53.014Z,729.00
2023-03-29T16:28:52.956Z,749.00
2023-03-29T16:29:52.862Z,737.00
2023-03-29T16:30:52.879Z,751.00
2023-03-29T16:31:53.229Z,750.00
2023-03-29T16:32:53.018Z,742.00
2023-03-29T16:33:52.887Z,740.00
2023-03-29T16:34:52.848Z,748.00
2023-03-29T16:35:53.153Z,737.00
2023-03-29T16:36:52.898Z,743.00
2023-03-29T16:37:52.810Z,745.00
2023-03-29T16:38:52.834Z,753.00
2023-03-29T16:39:52.831Z,766.00
2023-03-29T16:40:52.824Z,763.00
2023-03-29T16:41:52.793Z,770.00
2023-03-29T16:42:52.798Z,765.00
2023-03-29T16:43:52.848Z,776.00
2023-03-29T16:44:52.846Z,768.00
2023-03-29T16:45:52.774Z,769.00
2023-03-29T16:46:52.854Z,770.00
2023-03-29T16:47:52.785Z,772.00
2023-03-29T16:48:52.731Z,782.00
2023-03-29T16:49:52.816Z,783.00
2023-03-29T16:50:52.784Z,788.00
2023-03-29T16:51:52.753Z,780.00
2023-03-29T16:52:52.821Z,791.00
2023-03-29T16:53:52.713Z,792.00
2023-03-29T16:54:52.717Z,796.00
2023-03-29T16:55:52.710Z,780.00
2023-03-29T16:56:52.943Z,795.00
2023-03-29T16:57:52.697Z,802.00
2023-03-29T16:58:52.688Z,804.00
2023-03-29T16:59:52.776Z,800.00
2023-03-29T17:00:52.673Z,808.00
2023-03-29T17:01:52.750Z,807.00
2023-03-29T17:02:52.898Z,823.00
2023-03-29T17:03:52.667Z,805.00
2023-03-29T17:04:52.678Z,804.00
2023-03-29T17:05:52.697Z,809.00
2023-03-29T17:06:52.641Z,814.00
2023-03-29T17:07:52.597Z,818.00
2023-03-29T17:08:52.607Z,823.00
2023-03-29T17:09:52.623Z,828.00
2023-03-29T17:10:52.608Z,830.00
2023-03-29T17:11:52.695Z,817.00
2023-03-29T17:12:52.581Z,823.00
2023-03-29T17:13:52.577Z,823.00
2023-03-29T17:14:52.582Z,824.00
2023-03-29T17:15:52.797Z,813.00
2023-03-29T17:16:52.570Z,825.00
2023-03-29T17:17:52.628Z,833.00
2023-03-29T17:18:52.531Z,827.00
2023-03-29T17:19:52.585Z,829.00
2023-03-29T17:20:52.558Z,830.00
2023-03-29T17:21:52.604Z,839.00
2023-03-29T17:22:52.553Z,852.00
2023-03-29T17:23:52.508Z,837.00
2023-03-29T17:24:52.551Z,834.00
2023-03-29T17:25:52.562Z,833.00
2023-03-29T17:26:52.587Z,852.00
2023-03-29T17:27:52.588Z,832.00
2023-03-29T17:28:52.527Z,851.00
2023-03-29T17:29:52.531Z,862.00
2023-03-29T17:30:52.596Z,857.00
2023-03-29T17:31:52.539Z,857.00
2023-03-29T17:32:52.592Z,862.00
2023-03-29T17:33:52.495Z,854.00
2023-03-29T17:34:52.456Z,867.00
2023-03-29T17:35:52.583Z,865.00
2023-03-29T17:36:52.496Z,865.00
2023-03-29T17:37:52.403Z,875.00
2023-03-29T17:38:52.453Z,873.00
2023-03-29T17:39:52.393Z,879.00
2023-03-29T17:40:52.466Z,875.00
2023-03-29T17:41:52.365Z,871.00
2023-03-29T17:42:52.421Z,864.00
2023-03-29T17:43:52.438Z,870.00
2023-03-29T17:44:52.388Z,866.00
2023-03-29T17:45:52.386Z,853.00
2023-03-29T17:46:52.440Z,872.00
2023-03-29T17:47:52.391Z,865.00
2023-03-29T17:48:52.394Z,860.00
2023-03-29T17:49:52.400Z,861.00
2023-03-29T17:50:52.320Z,855.00
2023-03-29T17:51:52.997Z,879.00
2023-03-29T17:52:52.342Z,893.00
2023-03-29T17:53:52.507Z,896.00
2023-03-29T17:54:52.282Z,892.00
2023-03-29T17:55:52.305Z,897.00
2023-03-29T17:56:52.334Z,906.00
2023-03-29T17:57:52.343Z,911.00
2023-03-29T17:58:52.331Z,904.00
2023-03-29T17:59:52.435Z,892.00
2023-03-29T18:00:52.492Z,884.00
2023-03-29T18:01:52.518Z,877.00
2023-03-29T18:02:52.730Z,881.00
2023-03-29T18:03:52.576Z,882.00
2023-03-29T18:04:52.627Z,880.00
2023-03-29T18:05:52.686Z,891.00
2023-03-29T18:06:52.708Z,898.00
2023-03-29T18:07:52.798Z,889.00
2023-03-29T18:08:52.855Z,872.00
2023-03-29T18:09:52.915Z,877.00
2023-03-29T18:10:52.972Z,896.00
2023-03-29T18:11:53.042Z,887.00
2023-03-29T18:12:53.148Z,872.00
2023-03-29T18:13:53.148Z,874.00
2023-03-29T18:14:53.222Z,884.00
2023-03-29T18:15:53.324Z,873.00
2023-03-29T18:16:53.377Z,867.00
2023-03-29T18:17:53.437Z,850.00
2023-03-29T18:18:53.590Z,867.00
2023-03-29T18:19:53.539Z,873.00
2023-03-29T18:20:53.584Z,884.00
2023-03-29T18:21:53.651Z,869.00
2023-03-29T18:22:53.695Z,874.00
2023-03-29T18:23:56.227Z,873.00
2023-03-29T18:24:53.756Z,878.00
2023-03-29T18:25:53.734Z,878.00
2023-03-29T18:26:53.810Z,874.00
2023-03-29T18:27:53.758Z,875.00
2023-03-29T18:28:53.759Z,872.00
2023-03-29T18:29:53.718Z,857.00
2023-03-29T18:30:53.714Z,883.00
2023-03-29T18:31:53.812Z,893.00
2023-03-29T18:32:53.797Z,880.00
2023-03-29T18:33:53.688Z,895.00
2023-03-29T18:34:53.711Z,884.00
2023-03-29T18:35:53.741Z,886.00
2023-03-29T18:36:53.699Z,887.00
2023-03-29T18:37:53.692Z,883.00
2023-03-29T18:38:53.714Z,892.00
2023-03-29T18:39:53.646Z,870.00
2023-03-29T18:40:53.678Z,875.00
2023-03-29T18:41:53.658Z,889.00
2023-03-29T18:42:53.670Z,882.00
2023-03-29T18:43:53.651Z,893.00
2023-03-29T18:44:53.662Z,907.00
2023-03-29T18:45:53.641Z,903.00
2023-03-29T18:46:53.620Z,881.00
2023-03-29T18:47:53.641Z,899.00
2023-03-29T18:48:53.660Z,911.00
2023-03-29T18:49:53.590Z,905.00
2023-03-29T18:50:53.600Z,890.00
2023-03-29T18:51:53.600Z,890.00
2023-03-29T18:52:53.584Z,890.00
2023-03-29T18:53:53.568Z,891.00
2023-03-29T18:54:53.587Z,897.00
2023-03-29T18:55:53.594Z,881.00
2023-03-29T18:56:53.568Z,882.00
2023-03-29T18:57:53.601Z,892.00
2023-03-29T18:58:53.516Z,886.00
2023-03-29T18:59:53.571Z,873.00
2023-03-29T19:00:53.560Z,867.00
2023-03-29T19:01:53.608Z,858.00
2023-03-29T19:02:53.742Z,852.00
2023-03-29T19:03:53.681Z,844.00
2023-03-29T19:04:53.682Z,845.00
2023-03-29T19:05:53.800Z,842.00
2023-03-29T19:06:53.813Z,838.00
2023-03-29T19:07:53.881Z,837.00
2023-03-29T19:08:53.922Z,836.00
2023-03-29T19:09:53.941Z,851.00
2023-03-29T19:10:54.043Z,832.00
2023-03-29T19:11:54.051Z,844.00
2023-03-29T19:12:54.110Z,838.00
2023-03-29T19:13:54.155Z,840.00
2023-03-29T19:14:54.240Z,844.00
2023-03-29T19:15:54.319Z,819.00
2023-03-29T19:16:54.336Z,841.00
2023-03-29T19:17:54.426Z,841.00
2023-03-29T19:18:54.471Z,837.00
2023-03-29T19:19:54.510Z,833.00
2023-03-29T19:20:54.595Z,832.00
2023-03-29T19:21:54.637Z,825.00
2023-03-29T19:22:54.734Z,816.00
2023-03-29T19:23:54.739Z,820.00
2023-03-29T19:24:54.819Z,827.00
2023-03-29T19:25:54.882Z,831.00
2023-03-29T19:26:54.926Z,813.00
2023-03-29T19:27:55.005Z,829.00
2023-03-29T19:28:55.038Z,830.00
2023-03-29T19:29:55.146Z,825.00
2023-03-29T19:30:55.218Z,824.00
2023-03-29T19:31:55.268Z,830.00
2023-03-29T19:32:55.375Z,822.00
2023-03-29T19:33:55.357Z,815.00
2023-03-29T19:34:55.455Z,826.00
2023-03-29T19:35:55.506Z,834.00
2023-03-29T19:36:55.567Z,823.00
2023-03-29T19:37:55.622Z,819.00
2023-03-29T19:38:55.708Z,812.00
2023-03-29T19:39:55.792Z,816.00
2023-03-29T19:40:55.782Z,811.00
2023-03-29T19:41:55.895Z,808.00
2023-03-29T19:42:55.951Z,806.00
2023-03-29T19:43:56.008Z,799.00
2023-03-29T19:44:56.037Z,802.00
2023-03-29T19:45:56.138Z,826.00
2023-03-29T19:46:56.184Z,816.00
2023-03-29T19:47:56.248Z,793.00
2023-03-29T19:48:56.314Z,806.00
2023-03-29T19:49:56.409Z,806.00
2023-03-29T19:50:56.409Z,793.00
2023-03-29T19:51:56.440Z,794.00
2023-03-29T19:52:56.611Z,801.00
2023-03-29T19:53:56.585Z,792.00
2023-03-29T19:54:56.631Z,795.00
2023-03-29T19:55:56.689Z,805.00
2023-03-29T19:56:56.793Z,803.00
2023-03-29T19:57:56.800Z,798.00
2023-03-29T19:58:56.841Z,785.00
2023-03-29T19:59:56.915Z,781.00
2023-03-29T20:00:56.983Z,796.00
2023-03-29T20:01:57.145Z,789.00
2023-03-29T20:02:57.201Z,792.00
2023-03-29T20:03:57.202Z,797.00
2023-03-29T20:04:57.188Z,792.00
2023-03-29T20:05:57.273Z,801.00
2023-03-29T20:06:57.290Z,811.00
2023-03-29T20:07:57.341Z,795.00
2023-03-29T20:08:57.396Z,794.00
2023-03-29T20:09:57.404Z,796.00
2023-03-29T20:10:57.464Z,798.00
2023-03-29T20:11:57.525Z,785.00
2023-03-29T20:12:57.592Z,786.00
2023-03-29T20:13:57.635Z,783.00
2023-03-29T20:14:57.638Z,789.00
2023-03-29T20:15:57.725Z,775.00
2023-03-29T20:16:57.805Z,781.00
2023-03-29T20:17:59.643Z,775.00
2023-03-29T20:18:57.919Z,773.00
2023-03-29T20:19:57.878Z,783.00
2023-03-29T20:20:57.939Z,773.00
2023-03-29T20:21:57.947Z,781.00
2023-03-29T20:22:58.037Z,777.00
2023-03-29T20:23:58.068Z,778.00
2023-03-29T20:24:58.058Z,775.00
2023-03-29T20:25:58.126Z,782.00
2023-03-29T20:26:58.248Z,794.00
2023-03-29T20:27:58.288Z,784.00
2023-03-29T20:28:58.341Z,788.00
2023-03-29T20:29:58.370Z,787.00
2023-03-29T20:30:58.365Z,782.00
2023-03-29T20:31:58.445Z,780.00
2023-03-29T20:32:58.456Z,772.00
2023-03-29T20:33:58.441Z,783.00
2023-03-29T20:34:58.441Z,762.00
2023-03-29T20:35:58.656Z,768.00
2023-03-29T20:36:58.705Z,777.00
2023-03-29T20:37:58.660Z,784.00
2023-03-29T20:38:59.494Z,779.00
2023-03-29T20:39:58.743Z,778.00
2023-03-29T20:40:58.781Z,768.00
2023-03-29T20:41:58.796Z,767.00
2023-03-29T20:42:58.826Z,773.00
2023-03-29T20:43:58.811Z,789.00
2023-03-29T20:44:58.824Z,776.00
2023-03-29T20:45:58.853Z,785.00
2023-03-29T20:46:58.941Z,782.00
2023-03-29T20:47:58.990Z,777.00
2023-03-29T20:48:58.944Z,774.00
2023-03-29T20:49:58.909Z,781.00
2023-03-29T20:50:58.920Z,768.00
2023-03-29T20:51:58.954Z,782.00
2023-03-29T20:52:58.986Z,775.00
2023-03-29T20:53:59.072Z,780.00
2023-03-29T20:54:59.240Z,775.00
2023-03-29T20:55:59.252Z,781.00
2023-03-29T20:56:59.405Z,791.00
2023-03-29T20:57:59.433Z,784.00
2023-03-29T20:58:59.441Z,780.00
2023-03-29T20:59:59.429Z,779.00
2023-03-29T21:00:59.400Z,779.00
2023-03-29T21:01:59.557Z,779.00
2023-03-29T21:02:59.481Z,775.00
2023-03-29T21:03:59.508Z,775.00
2023-03-29T21:04:59.580Z,777.00
2023-03-29T21:05:59.470Z,781.00
2023-03-29T21:07:01.662Z,768.00
2023-03-29T21:07:59.490Z,783.00
2023-03-29T21:08:59.489Z,782.00
2023-03-29T21:09:59.496Z,777.00
2023-03-29T21:10:59.452Z,781.00
2023-03-29T21:11:59.470Z,776.00
2023-03-29T21:12:59.460Z,771.00
2023-03-29T21:13:59.391Z,776.00
2023-03-29T21:14:59.430Z,776.00
2023-03-29T21:15:59.443Z,773.00
2023-03-29T21:16:59.455Z,767.00
2023-03-29T21:17:59.497Z,773.00
2023-03-29T21:18:59.404Z,767.00
2023-03-29T21:19:59.415Z,760.00
2023-03-29T21:20:59.381Z,767.00
2023-03-29T21:21:59.363Z,766.00
2023-03-29T21:22:59.384Z,761.00
2023-03-29T21:23:59.390Z,764.00
2023-03-29T21:24:59.346Z,767.00
2023-03-29T21:25:59.345Z,755.00
2023-03-29T21:26:59.363Z,761.00
2023-03-29T21:27:59.513Z,766.00
2023-03-29T21:28:59.330Z,770.00
2023-03-29T21:29:59.428Z,774.00
2023-03-29T21:30:59.386Z,767.00
2023-03-29T21:31:59.316Z,776.00
2023-03-29T21:32:59.358Z,771.00
2023-03-29T21:33:59.295Z,778.00
2023-03-29T21:34:59.308Z,763.00
2023-03-29T21:35:59.354Z,772.00
2023-03-29T21:36:59.274Z,771.00
2023-03-29T21:37:59.270Z,772.00
2023-03-29T21:38:59.276Z,773.00
2023-03-29T21:39:59.249Z,771.00
2023-03-29T21:40:59.242Z,767.00
2023-03-29T21:41:59.259Z,764.00
2023-03-29T21:42:59.247Z,771.00
2023-03-29T21:43:59.269Z,771.00
2023-03-29T21:44:59.228Z,778.00
2023-03-29T21:45:59.231Z,769.00
2023-03-29T21:46:59.303Z,766.00
2023-03-29T21:47:59.298Z,766.00
2023-03-29T21:48:59.197Z,782.00
2023-03-29T21:49:59.197Z,771.00
2023-03-29T21:50:59.205Z,772.00
2023-03-29T21:51:59.222Z,772.00
2023-03-29T21:52:59.171Z,768.00
2023-03-29T21:53:59.153Z,764.00
2023-03-29T21:54:59.135Z,767.00
2023-03-29T21:55:59.150Z,764.00
2023-03-29T21:56:59.172Z,770.00
2023-03-29T21:57:59.162Z,766.00
2023-03-29T21:58:59.159Z,755.00
2023-03-29T21:59:59.137Z,761.00
2023-03-29T22:00:59.146Z,762.00
2023-03-29T22:01:59.141Z,774.00
2023-03-29T22:02:59.152Z,765.00
2023-03-29T22:03:59.102Z,777.00
2023-03-29T22:04:59.107Z,769.00
2023-03-29T22:05:59.105Z,770.00
2023-03-29T22:06:59.059Z,767.00
2023-03-29T22:07:59.074Z,773.00
2023-03-29T22:08:59.132Z,756.00
2023-03-29T22:09:59.079Z,767.00
2023-03-29T22:10:59.035Z,765.00
2023-03-29T22:11:59.061Z,756.00
2023-03-29T22:12:59.042Z,774.00
2023-03-29T22:13:59.063Z,762.00
2023-03-29T22:14:59.023Z,767.00
2023-03-29T22:15:59.311Z,767.00
2023-03-29T22:16:59.073Z,768.00
2023-03-29T22:17:59.903Z,761.00
2023-03-29T22:18:59.055Z,764.00
2023-03-29T22:19:59.006Z,769.00
2023-03-29T22:20:59.010Z,771.00
2023-03-29T22:21:58.958Z,764.00
2023-03-29T22:22:58.981Z,768.00
2023-03-29T22:23:58.982Z,768.00
2023-03-29T22:24:58.981Z,770.00
2023-03-29T22:25:58.941Z,778.00
2023-03-29T22:26:58.941Z,766.00
2023-03-29T22:27:58.945Z,773.00
2023-03-29T22:28:58.960Z,770.00
2023-03-29T22:29:58.962Z,761.00
2023-03-29T22:30:58.924Z,767.00
2023-03-29T22:31:58.966Z,765.00
2023-03-29T22:32:58.966Z,770.00
2023-03-29T22:33:58.948Z,773.00
2023-03-29T22:34:58.954Z,759.00
2023-03-29T22:35:58.925Z,773.00
2023-03-29T22:36:58.930Z,768.00
2023-03-29T22:37:58.878Z,759.00
2023-03-29T22:38:58.873Z,767.00
2023-03-29T22:39:58.883Z,763.00
2023-03-29T22:40:58.879Z,762.00
2023-03-29T22:41:58.846Z,757.00
2023-03-29T22:42:58.850Z,760.00
2023-03-29T22:43:58.859Z,760.00
2023-03-29T22:44:59.068Z,755.00
2023-03-29T22:45:58.872Z,761.00
2023-03-29T22:46:58.874Z,757.00
2023-03-29T22:47:58.958Z,776.00
2023-03-29T22:48:58.942Z,771.00
2023-03-29T22:49:58.945Z,760.00
2023-03-29T22:50:59.011Z,769.00
2023-03-29T22:51:59.010Z,782.00
2023-03-29T22:52:59.011Z,761.00
2023-03-29T22:53:59.079Z,767.00
2023-03-29T22:54:59.077Z,768.00
2023-03-29T22:55:59.141Z,757.00
2023-03-29T22:56:59.176Z,757.00
2023-03-29T22:57:59.163Z,761.00
2023-03-29T22:58:59.209Z,766.00
2023-03-29T22:59:59.213Z,769.00
2023-03-29T23:00:59.237Z,765.00
2023-03-29T23:01:59.354Z,763.00
2023-03-29T23:02:59.329Z,768.00
2023-03-29T23:03:59.377Z,761.00
2023-03-29T23:04:59.364Z,753.00
2023-03-29T23:05:59.372Z,768.00
2023-03-29T23:06:59.369Z,767.00
2023-03-29T23:07:59.415Z,758.00
2023-03-29T23:08:59.433Z,760.00
2023-03-29T23:09:59.479Z,771.00
2023-03-29T23:10:59.514Z,766.00
2023-03-29T23:11:59.498Z,765.00
2023-03-29T23:12:59.565Z,776.00
2023-03-29T23:13:59.566Z,761.00
2023-03-29T23:14:59.594Z,765.00
2023-03-29T23:15:59.645Z,762.00
2023-03-29T23:16:59.642Z,771.00
2023-03-29T23:17:59.674Z,756.00
2023-03-29T23:18:59.705Z,761.00
2023-03-29T23:19:59.771Z,760.00
2023-03-29T23:20:59.756Z,761.00
2023-03-29T23:21:59.831Z,750.00
2023-03-29T23:22:59.841Z,751.00
2023-03-29T23:23:59.897Z,755.00
2023-03-29T23:24:59.946Z,768.00
2023-03-29T23:25:59.911Z,772.00
2023-03-29T23:26:59.960Z,754.00
2023-03-29T23:27:59.978Z,764.00
2023-03-29T23:29:00.026Z,759.00
2023-03-29T23:30:00.160Z,768.00
2023-03-29T23:31:00.178Z,756.00
2023-03-29T23:32:00.163Z,761.00
2023-03-29T23:33:00.225Z,763.00
2023-03-29T23:34:00.210Z,764.00
2023-03-29T23:35:00.256Z,757.00
2023-03-29T23:36:00.341Z,764.00
2023-03-29T23:37:00.299Z,747.00
2023-03-29T23:38:00.345Z,758.00
2023-03-29T23:39:00.353Z,755.00
2023-03-29T23:40:00.420Z,756.00
2023-03-29T23:41:00.461Z,756.00
2023-03-29T23:42:00.471Z,757.00
2023-03-29T23:43:00.488Z,770.00